首页
METAR-TAF:

METAR-TAF

机场 :

皮耶什佳尼, 斯洛伐克

纬度: 48-37-30N, 经度: 017-49-43E, 海拔: 163米

当前天气观测

该预报发布于36分钟前的03:00 UTC
风速8节,风向东南
温度 5°C
湿度 52%
气压 1018 hPa
能见度10公里或以上

METAR: LZPP 210300Z AUTO 14008KT 9999 OVC069/// 05/M04 Q1018

时间: 04:36 (03:36 UTC)

预报

该预报发布于10小时和36分钟前的17:00 UTC
预报有效从20日的 18点(UTC)到 21日的 03点(UTC)
风速5节,风向西南
能见度10公里或以上
1500米以下无云,无积雨云
成为
从 20日的 20点(UTC)到 20日的 22点(UTC)
风速10节,风向南转南东

TAF: LZPP 201700Z 2018/2103 23005KT CAVOK BECMG 2020/2022 16010KT

超过4000个机场的气象观测和天气预报(METAR&TAF报告)。

可查询的气象台以黄色和红色小点在地图上表示。

将鼠标移到小点上方,可查看气象台名称。

然后点击查看天气观测和预报。

如需切换地图:点击带黑十字的绿色按钮放大地图;点击带横线的绿色按钮缩小地图;或者点击绿色箭头查看邻近地区的地图。


METAR-TAF: